Time;durP1;ratioP1;P1;durP2;ratioP2;P2;SDS_P1;SDS_P2;PMS_P1;PMS_P2;Temp;Humidity;BMP_temperature;BMP_pressure;BME280_temperature;BME280_humidity;BME280_pressure;Samples;Min_cycle;Max_cycle;Signal;HPM_P1;HPM_P2
2022/10/12 00:01:07;;;;;;;32.63;15.87;;;12.70;99.90;;;;;;5022376;28;21119;-60
2022/10/12 00:03:33;;;;;;;31.87;16.30;;;12.70;99.90;;;;;;5026683;28;20287;-60
2022/10/12 00:06:05;;;;;;;36.07;15.77;;;12.70;99.90;;;;;;5027759;28;20250;-60
2022/10/12 00:08:33;;;;;;;30.97;14.63;;;12.70;99.90;;;;;;5011869;28;20811;-60
2022/10/12 00:10:59;;;;;;;32.07;16.10;;;12.80;99.90;;;;;;5025908;28;20529;-61
2022/10/12 00:13:25;;;;;;;31.57;16.50;;;12.80;99.90;;;;;;5022209;28;20674;-60
2022/10/12 00:15:50;;;;;;;26.90;16.53;;;12.80;99.90;;;;;;5030085;28;20234;-60
2022/10/12 00:18:16;;;;;;;34.00;16.50;;;12.80;99.90;;;;;;5030768;28;20457;-60
2022/10/12 00:20:42;;;;;;;42.23;15.60;;;12.80;99.90;;;;;;5025801;28;20226;-61
2022/10/12 00:23:07;;;;;;;35.80;16.87;;;12.80;99.90;;;;;;5030574;28;20285;-61
2022/10/12 00:25:40;;;;;;;37.10;16.27;;;12.80;99.90;;;;;;5029980;28;20184;-60
2022/10/12 00:28:07;;;;;;;28.50;15.63;;;12.80;99.90;;;;;;5023721;28;20194;-61
2022/10/12 00:30:33;;;;;;;30.17;15.80;;;12.80;99.90;;;;;;5026520;28;20465;-60
2022/10/12 00:32:59;;;;;;;34.37;16.20;;;12.80;99.90;;;;;;5031321;28;20863;-60
2022/10/12 00:35:27;;;;;;;27.90;16.43;;;12.80;99.90;;;;;;5028309;28;20454;-60
2022/10/12 00:37:54;;;;;;;26.00;14.00;;;12.80;99.90;;;;;;5023149;28;20195;-61
2022/10/12 00:40:20;;;;;;;28.10;15.13;;;12.80;99.90;;;;;;5022881;28;21170;-60
2022/10/12 00:42:47;;;;;;;30.70;16.40;;;12.80;99.90;;;;;;5029822;28;20462;-60
2022/10/12 00:45:14;;;;;;;32.20;14.70;;;12.80;99.90;;;;;;5022694;28;20480;-60
2022/10/12 00:47:46;;;;;;;33.30;13.77;;;12.80;99.90;;;;;;5029952;28;20435;-60
2022/10/12 00:50:14;;;;;;;26.37;14.40;;;12.80;99.90;;;;;;5030289;28;20624;-60
2022/10/12 00:52:57;;;;;;;41.90;14.93;;;12.80;99.90;;;;;;5029244;28;20430;-60
2022/10/12 00:55:25;;;;;;;32.67;14.90;;;12.80;99.90;;;;;;5008601;28;20469;-60
2022/10/12 00:57:53;;;;;;;31.87;16.40;;;12.80;99.90;;;;;;5032215;28;20457;-60
2022/10/12 01:00:20;;;;;;;35.00;15.93;;;12.80;99.90;;;;;;5027963;28;20439;-59
2022/10/12 01:02:47;;;;;;;29.30;17.10;;;12.80;99.90;;;;;;5023127;28;21057;-60
2022/10/12 01:05:13;;;;;;;32.83;15.57;;;12.80;99.90;;;;;;5023225;28;20468;-60
2022/10/12 01:07:39;;;;;;;38.43;16.67;;;12.80;99.90;;;;;;5028717;28;20527;-60
2022/10/12 01:10:05;;;;;;;35.90;16.20;;;12.80;99.90;;;;;;5025395;28;20522;-60
2022/10/12 01:12:31;;;;;;;35.20;17.07;;;12.80;99.90;;;;;;5023691;28;20708;-60
2022/10/12 01:14:57;;;;;;;35.20;17.00;;;12.80;99.90;;;;;;5027829;28;20458;-61
2022/10/12 01:17:45;;;;;;;30.77;16.60;;;12.80;99.90;;;;;;5025038;28;21015;-60
2022/10/12 01:20:29;;;;;;;41.03;16.70;;;12.80;99.90;;;;;;5027151;28;20203;-60
2022/10/12 01:23:14;;;;;;;40.33;17.70;;;12.80;99.90;;;;;;5026328;28;20817;-60
2022/10/12 01:26:18;;;;;;;33.60;14.90;;;12.80;99.90;;;;;;5030426;28;20453;-60
2022/10/12 01:28:49;;;;;;;35.37;16.83;;;12.80;99.90;;;;;;5036972;28;20473;-60
2022/10/12 01:31:21;;;;;;;32.20;16.00;;;12.80;99.90;;;;;;5027790;28;20517;-60
2022/10/12 01:33:56;;;;;;;32.50;17.20;;;12.80;99.90;;;;;;5030179;28;20427;-60
2022/10/12 01:36:37;;;;;;;28.17;15.60;;;12.80;99.90;;;;;;5025603;28;20430;-60
2022/10/12 01:39:03;;;;;;;28.90;15.90;;;12.80;99.90;;;;;;5041269;28;20442;-60
2022/10/12 01:41:48;;;;;;;38.00;17.27;;;12.80;99.90;;;;;;5015604;28;20429;-60
2022/10/12 01:44:25;;;;;;;32.97;16.63;;;12.80;99.90;;;;;;5042954;28;20640;-61
2022/10/12 01:46:53;;;;;;;33.53;17.23;;;12.80;99.90;;;;;;5023223;28;20504;-60
2022/10/12 01:49:24;;;;;;;29.27;16.07;;;12.80;99.90;;;;;;5022071;28;20637;-60
2022/10/12 01:52:21;;;;;;;31.50;16.33;;;12.80;99.90;;;;;;5032846;28;20782;-60
2022/10/12 01:54:57;;;;;;;37.00;16.93;;;12.80;99.90;;;;;;5032281;28;20556;-60
2022/10/12 01:58:00;;;;;;;34.80;17.20;;;12.80;99.90;;;;;;5015864;28;20688;-60
2022/10/12 02:00:25;;;;;;;36.83;17.53;;;12.80;99.90;;;;;;5029676;28;20525;-60
2022/10/12 02:03:07;;;;;;;34.47;17.97;;;12.80;99.90;;;;;;5032850;28;20557;-60
2022/10/12 02:05:36;;;;;;;44.03;19.13;;;12.80;99.90;;;;;;5019342;28;20719;-60
2022/10/12 02:08:20;;;;;;;38.90;17.27;;;12.80;99.90;;;;;;5030968;28;20484;-60
2022/10/12 02:10:56;;;;;;;41.60;17.60;;;12.80;99.90;;;;;;5019159;28;20456;-60
2022/10/12 02:13:25;;;;;;;39.10;17.00;;;12.80;99.90;;;;;;5031495;28;20468;-60
2022/10/12 02:15:52;;;;;;;42.20;18.53;;;12.80;99.90;;;;;;5026886;28;20488;-60
2022/10/12 02:18:20;;;;;;;40.23;17.10;;;12.80;99.90;;;;;;5031418;28;20489;-60
2022/10/12 02:20:49;;;;;;;36.20;18.23;;;12.80;99.90;;;;;;5027831;28;20492;-60
2022/10/12 02:23:16;;;;;;;34.00;17.90;;;12.80;99.90;;;;;;5030885;28;20899;-60
2022/10/12 02:25:41;;;;;;;32.90;17.23;;;12.80;99.90;;;;;;5025775;28;20434;-60
2022/10/12 02:28:15;;;;;;;44.50;17.80;;;12.80;99.90;;;;;;5013339;28;20472;-60
2022/10/12 02:30:58;;;;;;;39.00;18.07;;;12.80;99.90;;;;;;5030182;28;20677;-60
2022/10/12 02:33:31;;;;;;;40.60;17.70;;;12.80;99.90;;;;;;5030425;28;20533;-60
2022/10/12 02:36:07;;;;;;;44.10;15.90;;;12.80;99.90;;;;;;5028844;28;20462;-60
2022/10/12 02:39:00;;;;;;;42.57;18.20;;;12.80;99.90;;;;;;5029736;28;20450;-60
2022/10/12 02:41:34;;;;;;;45.63;19.70;;;12.80;99.90;;;;;;5028611;28;20434;-61
2022/10/12 02:44:04;;;;;;;41.83;18.37;;;12.80;99.90;;;;;;5027053;28;20794;-60
2022/10/12 02:46:32;;;;;;;41.30;18.33;;;12.80;99.90;;;;;;5026072;28;20434;-60
2022/10/12 02:48:59;;;;;;;35.10;16.40;;;12.80;99.90;;;;;;5030042;28;20442;-60
2022/10/12 02:51:27;;;;;;;43.03;16.80;;;12.80;99.90;;;;;;5030500;28;20426;-60
2022/10/12 02:53:53;;;;;;;39.93;18.70;;;12.80;99.90;;;;;;5028593;28;20430;-60
2022/10/12 02:56:19;;;;;;;38.97;18.83;;;12.80;99.90;;;;;;5030153;28;20509;-60
2022/10/12 02:58:46;;;;;;;32.10;16.20;;;12.80;99.90;;;;;;5022444;28;20529;-60
2022/10/12 03:01:12;;;;;;;39.87;17.27;;;12.80;99.90;;;;;;5031239;28;20164;-60
2022/10/12 03:03:39;;;;;;;59.90;17.90;;;12.80;99.90;;;;;;5027438;28;20512;-61
2022/10/12 03:06:05;;;;;;;31.83;15.53;;;12.80;99.90;;;;;;5026845;28;20426;-61
2022/10/12 03:08:31;;;;;;;35.10;17.40;;;12.80;99.90;;;;;;5027981;28;20446;-60
2022/10/12 03:11:08;;;;;;;38.23;18.00;;;12.80;99.90;;;;;;5027714;28;20508;-60
2022/10/12 03:13:33;;;;;;;36.67;17.80;;;12.80;99.90;;;;;;5028264;28;20662;-60
2022/10/12 03:16:03;;;;;;;37.13;17.17;;;12.80;99.90;;;;;;5027280;28;20430;-60
2022/10/12 03:18:29;;;;;;;32.77;17.33;;;12.80;99.90;;;;;;5022149;28;20211;-60
2022/10/12 03:20:55;;;;;;;32.33;15.37;;;12.80;99.90;;;;;;5027208;28;20437;-60
2022/10/12 03:23:20;;;;;;;30.13;15.47;;;12.80;99.90;;;;;;5033504;28;20253;-60
2022/10/12 03:25:46;;;;;;;40.07;16.40;;;12.80;99.90;;;;;;5016327;28;20180;-60
2022/10/12 03:28:11;;;;;;;32.63;16.50;;;12.80;99.90;;;;;;5028113;28;20701;-60
2022/10/12 03:30:37;;;;;;;33.43;17.03;;;12.80;99.90;;;;;;5028789;28;20188;-60
2022/10/12 03:33:02;;;;;;;39.20;17.30;;;12.80;99.90;;;;;;5031148;28;20180;-60
2022/10/12 03:35:28;;;;;;;43.53;16.30;;;12.80;99.90;;;;;;5028704;28;20706;-60
2022/10/12 03:37:53;;;;;;;33.63;16.60;;;12.80;99.90;;;;;;5030601;28;20693;-60
2022/10/12 03:40:19;;;;;;;32.47;17.20;;;12.80;99.90;;;;;;5024706;28;20176;-60
2022/10/12 03:42:45;;;;;;;32.73;16.63;;;12.80;99.90;;;;;;5028446;28;20207;-60
2022/10/12 03:45:11;;;;;;;38.97;17.10;;;12.80;99.90;;;;;;5017306;28;20199;-60
2022/10/12 03:47:37;;;;;;;35.00;17.20;;;12.70;99.90;;;;;;5026762;28;20195;-60
2022/10/12 03:50:03;;;;;;;52.47;17.00;;;12.70;99.90;;;;;;5021250;28;20431;-60
2022/10/12 03:52:29;;;;;;;45.83;18.13;;;12.70;99.90;;;;;;5021164;28;20186;-58
2022/10/12 03:54:54;;;;;;;33.03;17.00;;;12.80;99.90;;;;;;5019547;28;20427;-59
2022/10/12 03:57:20;;;;;;;45.40;18.90;;;12.80;99.90;;;;;;5024507;28;20179;-58
2022/10/12 03:59:45;;;;;;;46.87;17.30;;;12.70;99.90;;;;;;5024961;28;20325;-59
2022/10/12 04:02:11;;;;;;;32.00;15.90;;;12.70;99.90;;;;;;5026844;28;20196;-58
2022/10/12 04:04:37;;;;;;;45.17;17.10;;;12.70;99.90;;;;;;5025710;28;20517;-61
2022/10/12 04:07:03;;;;;;;35.63;16.80;;;12.70;99.90;;;;;;5025898;28;20247;-60
2022/10/12 04:09:28;;;;;;;33.17;17.57;;;12.70;99.90;;;;;;5022593;28;21047;-61
2022/10/12 04:11:54;;;;;;;37.07;16.00;;;12.70;99.90;;;;;;5014576;28;20270;-61
2022/10/12 04:14:20;;;;;;;36.73;16.90;;;12.70;99.90;;;;;;5024405;28;20176;-60
2022/10/12 04:16:45;;;;;;;34.30;16.93;;;12.70;99.90;;;;;;5021949;28;20326;-61
2022/10/12 04:19:12;;;;;;;36.13;16.87;;;12.70;99.90;;;;;;5019208;28;22271;-61
2022/10/12 04:21:38;;;;;;;34.20;16.47;;;12.70;99.90;;;;;;5024927;28;20184;-62
2022/10/12 04:24:04;;;;;;;35.77;17.27;;;12.60;99.90;;;;;;5025799;28;20439;-63
2022/10/12 04:26:30;;;;;;;37.17;17.40;;;12.60;99.90;;;;;;5022812;28;21769;-62
2022/10/12 04:28:55;;;;;;;42.20;16.80;;;12.60;99.90;;;;;;5024386;28;20195;-61
2022/10/12 04:31:21;;;;;;;40.73;16.20;;;12.60;99.90;;;;;;5022753;28;20168;-62
2022/10/12 04:33:46;;;;;;;41.40;17.43;;;12.60;99.90;;;;;;5023963;28;20202;-61
2022/10/12 04:36:12;;;;;;;41.03;17.40;;;12.60;99.90;;;;;;5014212;28;20289;-61
2022/10/12 04:38:38;;;;;;;37.53;17.57;;;12.60;99.90;;;;;;5022177;28;20211;-61
2022/10/12 04:41:04;;;;;;;42.53;18.97;;;12.60;99.90;;;;;;5021958;28;20204;-61
2022/10/12 04:43:29;;;;;;;37.60;18.00;;;12.60;99.90;;;;;;5021783;28;20199;-62
2022/10/12 04:45:57;;;;;;;35.90;17.17;;;12.60;99.90;;;;;;5008720;28;20480;-61
2022/10/12 04:48:23;;;;;;;39.07;17.53;;;12.60;99.90;;;;;;5021511;28;20196;-61
2022/10/12 04:50:49;;;;;;;36.37;16.10;;;12.60;99.90;;;;;;5020210;28;20458;-61
2022/10/12 04:53:15;;;;;;;35.30;16.70;;;12.60;99.90;;;;;;5018483;28;20470;-61
2022/10/12 04:55:41;;;;;;;37.70;16.57;;;12.60;99.90;;;;;;5020693;28;20172;-61
2022/10/12 04:58:06;;;;;;;34.13;16.47;;;12.60;99.90;;;;;;5027227;28;20204;-62
2022/10/12 05:00:32;;;;;;;31.77;16.30;;;12.60;99.90;;;;;;5016722;28;20183;-61
2022/10/12 05:02:57;;;;;;;32.63;16.47;;;12.60;99.90;;;;;;5015145;28;20211;-61
2022/10/12 05:05:23;;;;;;;31.30;15.47;;;12.60;99.90;;;;;;5024242;28;20180;-60
2022/10/12 05:07:49;;;;;;;34.23;16.47;;;12.60;99.90;;;;;;5020128;28;20188;-61
2022/10/12 05:10:14;;;;;;;37.33;16.80;;;12.60;99.90;;;;;;5015597;28;20179;-61
2022/10/12 05:12:41;;;;;;;44.37;16.67;;;12.50;99.90;;;;;;5020853;28;20180;-61
2022/10/12 05:15:07;;;;;;;37.23;16.80;;;12.50;99.90;;;;;;5028597;28;21471;-62
2022/10/12 05:17:33;;;;;;;31.00;16.30;;;12.50;99.90;;;;;;5024703;28;20458;-61
2022/10/12 05:19:58;;;;;;;33.20;16.80;;;12.50;99.90;;;;;;5026093;28;20435;-61
2022/10/12 05:22:25;;;;;;;33.80;17.20;;;12.50;99.90;;;;;;5021943;28;20244;-61
2022/10/12 05:24:51;;;;;;;37.20;15.70;;;12.50;99.90;;;;;;5018721;28;20527;-61
2022/10/12 05:27:16;;;;;;;39.80;16.90;;;12.50;99.90;;;;;;5025610;28;20558;-61
2022/10/12 05:29:42;;;;;;;41.97;16.47;;;12.50;99.90;;;;;;5025311;28;20230;-61
2022/10/12 05:32:07;;;;;;;36.93;17.70;;;12.50;99.90;;;;;;5026490;28;20233;-61
2022/10/12 05:34:33;;;;;;;35.27;16.53;;;12.50;99.90;;;;;;5028114;28;20818;-61
2022/10/12 05:36:59;;;;;;;38.50;17.20;;;12.50;99.90;;;;;;5022618;28;20181;-61
2022/10/12 05:39:24;;;;;;;37.67;15.97;;;12.50;99.90;;;;;;5023428;28;20651;-60
2022/10/12 05:41:53;;;;;;;38.53;15.93;;;12.50;99.90;;;;;;4998817;28;20235;-62
2022/10/12 05:44:19;;;;;;;35.60;17.60;;;12.50;99.90;;;;;;5026129;28;20233;-61
2022/10/12 05:46:45;;;;;;;36.17;16.87;;;12.50;99.90;;;;;;5025461;28;20869;-61
2022/10/12 05:49:10;;;;;;;42.67;18.00;;;12.50;99.90;;;;;;5018190;28;20458;-61
2022/10/12 05:51:37;;;;;;;42.40;17.53;;;12.50;99.90;;;;;;5026346;28;20200;-62
2022/10/12 05:54:03;;;;;;;38.77;16.50;;;12.50;99.90;;;;;;5025395;28;20255;-63
2022/10/12 05:56:29;;;;;;;42.37;15.60;;;12.50;99.90;;;;;;5024582;28;20426;-62
2022/10/12 05:58:55;;;;;;;35.70;16.33;;;12.40;99.90;;;;;;5024716;28;20956;-61
2022/10/12 06:01:20;;;;;;;36.37;16.30;;;12.40;99.90;;;;;;5025994;28;20431;-61
2022/10/12 06:03:46;;;;;;;45.07;18.60;;;12.40;99.90;;;;;;5023726;28;20980;-61
2022/10/12 06:06:12;;;;;;;39.47;17.30;;;12.40;99.90;;;;;;5023162;28;20179;-61
2022/10/12 06:08:37;;;;;;;35.90;17.37;;;12.40;99.90;;;;;;5024100;28;20200;-61
2022/10/12 06:11:03;;;;;;;37.20;16.77;;;12.40;99.90;;;;;;5020920;28;20661;-61
2022/10/12 06:13:29;;;;;;;36.00;16.77;;;12.40;99.90;;;;;;5024429;28;20558;-61
2022/10/12 06:15:54;;;;;;;51.70;16.63;;;12.40;99.90;;;;;;5024760;28;20834;-61
2022/10/12 06:18:21;;;;;;;32.27;16.00;;;12.40;99.90;;;;;;5020089;28;20211;-61
2022/10/12 06:20:49;;;;;;;38.77;16.77;;;12.40;99.90;;;;;;5025817;28;20270;-61
2022/10/12 06:23:15;;;;;;;37.83;16.03;;;12.50;99.90;;;;;;5025086;28;20481;-61
2022/10/12 06:25:41;;;;;;;41.30;17.40;;;12.40;99.90;;;;;;5017222;28;20430;-61
2022/10/12 06:28:06;;;;;;;37.00;15.93;;;12.50;99.90;;;;;;5007626;28;20215;-61
2022/10/12 06:30:32;;;;;;;40.03;17.10;;;12.50;99.90;;;;;;5029424;28;20298;-61
2022/10/12 06:32:58;;;;;;;38.67;16.70;;;12.50;99.90;;;;;;5024850;28;20706;-61
2022/10/12 06:35:23;;;;;;;33.67;16.27;;;12.50;99.90;;;;;;5024979;28;20184;-61
2022/10/12 06:37:50;;;;;;;32.33;17.40;;;12.50;99.90;;;;;;5028217;28;20289;-61
2022/10/12 06:40:19;;;;;;;43.93;17.70;;;12.50;99.90;;;;;;5027587;28;20191;-61
2022/10/12 06:42:45;;;;;;;36.37;17.43;;;12.50;99.90;;;;;;5024323;28;20469;-61
2022/10/12 06:45:11;;;;;;;35.60;15.77;;;12.50;99.90;;;;;;5029121;28;20430;-61
2022/10/12 06:47:37;;;;;;;32.33;15.63;;;12.50;99.90;;;;;;5026863;28;21032;-61
2022/10/12 06:50:03;;;;;;;37.80;16.43;;;12.50;99.90;;;;;;5024060;28;20442;-61
2022/10/12 06:52:29;;;;;;;37.93;16.47;;;12.50;99.90;;;;;;5028084;28;20185;-61
2022/10/12 06:54:54;;;;;;;37.43;15.90;;;12.50;99.90;;;;;;5028211;28;20501;-61
2022/10/12 06:57:20;;;;;;;42.23;17.40;;;12.50;99.90;;;;;;5025458;28;20271;-61
2022/10/12 06:59:45;;;;;;;35.90;16.60;;;12.50;99.90;;;;;;5030722;28;20662;-61
2022/10/12 07:02:11;;;;;;;34.20;17.57;;;12.50;99.90;;;;;;5024242;28;20258;-61
2022/10/12 07:04:36;;;;;;;35.40;16.27;;;12.50;99.90;;;;;;5025536;28;20187;-62
2022/10/12 07:07:02;;;;;;;41.77;16.90;;;12.50;99.90;;;;;;5030382;28;20183;-60
2022/10/12 07:09:28;;;;;;;37.63;17.17;;;12.50;99.90;;;;;;5027061;28;20753;-61
2022/10/12 07:11:54;;;;;;;47.63;17.77;;;12.50;99.90;;;;;;5025591;28;20476;-61
2022/10/12 07:14:20;;;;;;;39.80;18.10;;;12.50;99.90;;;;;;5024250;28;20266;-61
2022/10/12 07:16:46;;;;;;;34.60;17.47;;;12.50;99.90;;;;;;5026641;28;20514;-60
2022/10/12 07:19:12;;;;;;;47.43;18.20;;;12.50;99.90;;;;;;5028992;28;20211;-60
2022/10/12 07:21:37;;;;;;;34.67;16.23;;;12.50;99.90;;;;;;5025435;28;20285;-60
2022/10/12 07:24:04;;;;;;;37.07;17.40;;;12.50;99.90;;;;;;5027129;28;20263;-60
2022/10/12 07:26:30;;;;;;;32.87;16.60;;;12.60;99.90;;;;;;5027415;28;20199;-61
2022/10/12 07:28:56;;;;;;;45.03;18.30;;;12.60;99.90;;;;;;5025126;28;20454;-60
2022/10/12 07:31:22;;;;;;;34.00;16.50;;;12.60;99.90;;;;;;5024802;28;20431;-60
2022/10/12 07:33:48;;;;;;;37.93;16.87;;;12.60;99.90;;;;;;5029371;28;20450;-60
2022/10/12 07:36:14;;;;;;;30.40;14.83;;;12.60;99.90;;;;;;5022801;28;20647;-60
2022/10/12 07:38:43;;;;;;;36.60;15.03;;;12.60;99.90;;;;;;5027586;28;20208;-60
2022/10/12 07:41:11;;;;;;;31.60;15.20;;;12.60;99.90;;;;;;5027884;28;20964;-61
2022/10/12 07:43:37;;;;;;;30.80;15.30;;;12.60;99.90;;;;;;5023334;28;20462;-60
2022/10/12 07:46:03;;;;;;;27.03;13.03;;;12.60;99.90;;;;;;5025969;28;20492;-59
2022/10/12 07:48:29;;;;;;;32.97;14.70;;;12.70;99.90;;;;;;5028407;28;20547;-60
2022/10/12 07:50:56;;;;;;;27.47;14.03;;;12.70;99.90;;;;;;5012024;28;20469;-60
2022/10/12 07:53:21;;;;;;;31.77;12.83;;;12.70;99.90;;;;;;5027269;28;20184;-60
2022/10/12 07:55:47;;;;;;;29.93;14.20;;;12.70;99.90;;;;;;5022758;28;20791;-60
2022/10/12 07:58:12;;;;;;;26.83;13.40;;;12.70;99.90;;;;;;5027590;28;20192;-60
2022/10/12 08:00:38;;;;;;;30.20;14.37;;;12.70;99.90;;;;;;5028656;28;20214;-60
2022/10/12 08:03:04;;;;;;;30.90;13.43;;;12.70;99.90;;;;;;5007657;28;20250;-60
2022/10/12 08:05:30;;;;;;;28.60;13.83;;;12.70;99.90;;;;;;5026422;28;20176;-60
2022/10/12 08:07:56;;;;;;;29.10;14.03;;;12.70;99.90;;;;;;5023054;28;21051;-60
2022/10/12 08:10:21;;;;;;;27.83;13.53;;;12.70;99.90;;;;;;5022065;28;20184;-60
2022/10/12 08:12:47;;;;;;;25.30;13.00;;;12.80;99.90;;;;;;5024542;28;20179;-60
2022/10/12 08:15:13;;;;;;;25.33;13.37;;;12.80;99.90;;;;;;5018211;28;20184;-60
2022/10/12 08:17:39;;;;;;;29.77;13.07;;;12.80;99.90;;;;;;5027011;28;20211;-62
2022/10/12 08:20:05;;;;;;;25.03;12.50;;;12.80;99.90;;;;;;5006765;28;20480;-60
2022/10/12 08:22:31;;;;;;;25.57;13.47;;;12.80;99.90;;;;;;5026936;28;20245;-60
2022/10/12 08:24:57;;;;;;;27.50;13.60;;;12.80;99.90;;;;;;5029950;28;20438;-60
2022/10/12 08:27:22;;;;;;;25.53;12.93;;;12.80;99.90;;;;;;5028363;28;20602;-60
2022/10/12 08:29:48;;;;;;;22.07;12.20;;;12.80;99.90;;;;;;5025598;28;20168;-61
2022/10/12 08:32:14;;;;;;;26.60;12.33;;;12.80;99.90;;;;;;5030406;28;20176;-61
2022/10/12 08:34:40;;;;;;;22.07;11.80;;;12.80;99.90;;;;;;5030989;28;20241;-61
2022/10/12 08:37:05;;;;;;;27.80;11.73;;;12.80;99.90;;;;;;5020878;28;20442;-61
2022/10/12 08:39:31;;;;;;;29.67;12.70;;;12.80;99.90;;;;;;5023416;28;20853;-61
2022/10/12 08:42:11;;;;;;;24.20;12.27;;;12.90;99.90;;;;;;5024420;28;20223;-61
2022/10/12 08:44:51;;;;;;;23.23;12.20;;;12.90;99.90;;;;;;5025135;28;20199;-61
2022/10/12 08:47:40;;;;;;;19.03;10.27;;;12.90;99.90;;;;;;5023060;28;20932;-61
2022/10/12 08:50:14;;;;;;;19.10;10.67;;;12.90;99.90;;;;;;5022806;28;20437;-61
2022/10/12 08:52:47;;;;;;;20.20;10.70;;;13.00;99.90;;;;;;5025263;28;20487;-61
2022/10/12 08:55:20;;;;;;;23.17;11.20;;;13.00;99.90;;;;;;5026707;28;20434;-61
2022/10/12 08:57:46;;;;;;;19.53;10.43;;;13.00;99.90;;;;;;5021763;28;20461;-61
2022/10/12 09:00:14;;;;;;;24.60;12.10;;;13.00;99.90;;;;;;5012993;28;20899;-60
2022/10/12 09:03:17;;;;;;;20.17;10.70;;;13.00;99.90;;;;;;5019507;28;20202;-62
2022/10/12 09:06:04;;;;;;;25.47;11.67;;;13.00;99.90;;;;;;5016980;28;21296;-60
2022/10/12 09:08:50;;;;;;;20.33;11.70;;;13.10;99.90;;;;;;4999459;28;20450;-62
2022/10/12 09:11:41;;;;;;;22.37;12.00;;;13.10;99.90;;;;;;5019178;28;20434;-61
2022/10/12 09:14:14;;;;;;;22.40;11.53;;;13.10;99.90;;;;;;5022828;28;20971;-60
2022/10/12 09:16:44;;;;;;;23.90;12.80;;;13.10;99.90;;;;;;5028441;28;20517;-61
2022/10/12 09:19:23;;;;;;;23.03;11.97;;;13.10;99.90;;;;;;5023983;28;20504;-62
2022/10/12 09:21:49;;;;;;;34.33;13.00;;;13.10;99.90;;;;;;5022707;28;20437;-61
2022/10/12 09:24:19;;;;;;;26.23;12.80;;;13.10;99.90;;;;;;5003882;28;20438;-62
2022/10/12 09:26:49;;;;;;;22.20;11.33;;;13.20;99.90;;;;;;5024715;28;20422;-61
2022/10/12 09:29:25;;;;;;;20.93;11.50;;;13.20;99.90;;;;;;5028904;28;20596;-61
2022/10/12 09:32:11;;;;;;;23.67;11.47;;;13.20;99.90;;;;;;5028417;28;20835;-61
2022/10/12 09:34:38;;;;;;;26.30;11.23;;;13.30;99.90;;;;;;5030020;28;20956;-61
2022/10/12 09:37:05;;;;;;;19.27;11.00;;;13.30;99.90;;;;;;5023495;28;20423;-60
2022/10/12 09:39:36;;;;;;;18.57;10.17;;;13.30;99.90;;;;;;5026357;28;20449;-61
2022/10/12 09:42:02;;;;;;;19.57;10.13;;;13.30;99.90;;;;;;5024213;28;21153;-60
2022/10/12 09:44:35;;;;;;;24.30;10.27;;;13.30;99.90;;;;;;5025477;28;20439;-61
2022/10/12 09:47:03;;;;;;;19.47;9.87;;;13.30;99.90;;;;;;5026840;28;20810;-59
2022/10/12 09:49:43;;;;;;;24.43;11.03;;;13.30;99.90;;;;;;5021814;28;20446;-60
2022/10/12 09:52:11;;;;;;;21.37;10.27;;;13.40;99.90;;;;;;5024497;28;20442;-60
2022/10/12 09:54:44;;;;;;;21.20;11.40;;;13.40;99.90;;;;;;5025686;28;20483;-60
2022/10/12 09:57:16;;;;;;;28.33;10.37;;;13.40;99.90;;;;;;5021051;28;20776;-60
2022/10/12 09:59:43;;;;;;;25.23;11.57;;;13.50;99.90;;;;;;5028295;28;21832;-60
2022/10/12 10:02:12;;;;;;;25.73;10.53;;;13.50;99.90;;;;;;5027630;28;20462;-61
2022/10/12 10:04:39;;;;;;;22.73;11.07;;;13.50;99.90;;;;;;5027281;28;20488;-62
2022/10/12 10:07:29;;;;;;;17.50;9.43;;;13.50;99.90;;;;;;5026754;28;20430;-62
2022/10/12 10:10:04;;;;;;;28.07;11.40;;;13.50;99.90;;;;;;5030355;28;20426;-61
2022/10/12 10:12:30;;;;;;;22.20;10.47;;;13.50;99.90;;;;;;5027071;28;20473;-62
2022/10/12 10:14:57;;;;;;;16.13;9.47;;;13.50;99.90;;;;;;5028374;28;20472;-62
2022/10/12 10:17:33;;;;;;;19.83;9.87;;;13.50;99.90;;;;;;5007968;28;20508;-62
2022/10/12 10:20:02;;;;;;;16.13;9.43;;;13.50;99.90;;;;;;5028260;28;20441;-62
2022/10/12 10:22:28;;;;;;;14.90;8.13;;;13.50;99.90;;;;;;5025306;28;20489;-64
2022/10/12 10:24:57;;;;;;;14.60;8.70;;;13.50;99.90;;;;;;5015344;28;20430;-60
2022/10/12 10:27:29;;;;;;;15.13;7.60;;;13.50;99.90;;;;;;5023670;28;20918;-60
2022/10/12 10:30:20;;;;;;;13.47;8.17;;;13.50;99.90;;;;;;5021352;28;20430;-60
2022/10/12 10:32:47;;;;;;;17.60;9.47;;;13.60;99.90;;;;;;5021934;28;20430;-62
2022/10/12 10:35:12;;;;;;;14.53;8.93;;;13.60;99.90;;;;;;5028291;28;20438;-63
2022/10/12 10:37:58;;;;;;;17.03;9.20;;;13.60;99.90;;;;;;5026544;28;20450;-62
2022/10/12 10:40:28;;;;;;;20.53;8.40;;;13.70;99.90;;;;;;5025131;28;21397;-61
2022/10/12 10:43:03;;;;;;;13.63;8.80;;;13.70;99.90;;;;;;5020934;28;20494;-61
2022/10/12 10:45:34;;;;;;;12.37;8.17;;;13.70;99.90;;;;;;5020684;28;20422;-63
2022/10/12 10:48:13;;;;;;;17.80;8.33;;;13.70;99.90;;;;;;5024842;28;20941;-61
2022/10/12 10:50:42;;;;;;;16.13;9.10;;;13.60;99.90;;;;;;5022094;28;20425;-61
2022/10/12 10:53:20;;;;;;;14.77;7.80;;;13.60;99.90;;;;;;5024829;28;20429;-62
2022/10/12 10:56:06;;;;;;;17.43;8.70;;;13.70;99.90;;;;;;5020964;28;20451;-62
2022/10/12 10:58:46;;;;;;;15.70;8.43;;;13.70;99.90;;;;;;5022358;28;20549;-62
2022/10/12 11:01:20;;;;;;;16.93;8.50;;;13.80;99.90;;;;;;5025650;28;21003;-62
2022/10/12 11:03:56;;;;;;;15.10;8.50;;;13.80;99.90;;;;;;5020043;28;21026;-62
2022/10/12 11:06:37;;;;;;;12.80;8.50;;;13.80;99.90;;;;;;5019712;28;20430;-60
2022/10/12 11:09:17;;;;;;;17.50;8.17;;;13.80;99.90;;;;;;5013467;28;20452;-61
2022/10/12 11:11:46;;;;;;;11.57;7.00;;;13.80;99.90;;;;;;5013378;28;20461;-63
2022/10/12 11:14:17;;;;;;;13.23;8.30;;;13.80;99.90;;;;;;5017436;28;20451;-61
2022/10/12 11:17:03;;;;;;;16.27;8.50;;;13.80;99.90;;;;;;5019932;28;20496;-61
2022/10/12 11:19:35;;;;;;;18.23;10.60;;;13.90;99.90;;;;;;5019017;28;20592;-61
2022/10/12 11:22:20;;;;;;;18.30;10.07;;;13.90;99.90;;;;;;5019198;28;20459;-60
2022/10/12 11:24:57;;;;;;;15.50;10.13;;;14.00;99.90;;;;;;5023319;28;20473;-60
2022/10/12 11:27:29;;;;;;;16.90;10.40;;;14.00;99.90;;;;;;5019575;28;20426;-61
2022/10/12 11:29:58;;;;;;;18.63;10.90;;;14.00;99.90;;;;;;5018213;28;20431;-60
2022/10/12 11:32:41;;;;;;;19.40;10.17;;;14.00;99.90;;;;;;5021118;28;20517;-59
2022/10/12 11:35:15;;;;;;;16.83;11.20;;;14.00;99.90;;;;;;5017868;28;22316;-61
2022/10/12 11:38:01;;;;;;;19.83;10.93;;;14.00;99.90;;;;;;5016737;28;20473;-59
2022/10/12 11:40:41;;;;;;;15.97;8.90;;;14.10;99.90;;;;;;5023237;28;20433;-60
2022/10/12 11:43:14;;;;;;;17.57;10.23;;;14.20;99.90;;;;;;5021921;28;20486;-61
2022/10/12 11:45:42;;;;;;;19.30;9.30;;;14.20;99.90;;;;;;5025824;28;20473;-59
2022/10/12 11:48:21;;;;;;;17.60;8.27;;;14.20;99.90;;;;;;5024536;28;20446;-60
2022/10/12 11:50:49;;;;;;;18.87;9.93;;;14.20;99.90;;;;;;5023303;28;20504;-60
2022/10/12 11:53:17;;;;;;;14.57;8.83;;;14.20;99.90;;;;;;5023182;28;20445;-58
2022/10/12 11:56:14;;;;;;;18.97;9.43;;;14.20;99.90;;;;;;5007388;28;20944;-59
2022/10/12 11:58:43;;;;;;;16.70;8.67;;;14.20;99.90;;;;;;5024369;28;20458;-60
2022/10/12 12:01:20;;;;;;;17.17;9.43;;;14.20;99.90;;;;;;5022643;28;20426;-60
2022/10/12 12:04:16;;;;;;;13.30;8.77;;;14.20;99.90;;;;;;5017377;28;20457;-60
2022/10/12 12:06:44;;;;;;;13.53;8.10;;;14.20;99.90;;;;;;5025564;28;20438;-60
2022/10/12 12:09:19;;;;;;;14.20;7.80;;;14.30;99.90;;;;;;5018065;28;20716;-61
2022/10/12 12:11:44;;;;;;;14.57;8.90;;;14.30;99.90;;;;;;5023314;28;20448;-61
2022/10/12 12:14:25;;;;;;;16.37;9.07;;;14.30;99.90;;;;;;5019202;28;20446;-61
2022/10/12 12:17:14;;;;;;;22.53;9.47;;;14.30;99.90;;;;;;5026125;28;20187;-62
2022/10/12 12:19:41;;;;;;;15.93;8.07;;;14.30;99.90;;;;;;4998107;28;20438;-62
2022/10/12 12:22:19;;;;;;;18.37;8.10;;;14.30;99.90;;;;;;5027688;28;20457;-62
2022/10/12 12:25:04;;;;;;;12.93;7.33;;;14.30;99.90;;;;;;5024852;28;20931;-62
2022/10/12 12:27:40;;;;;;;21.17;8.47;;;14.30;99.90;;;;;;5019896;28;20451;-61
2022/10/12 12:30:18;;;;;;;13.40;8.50;;;14.30;99.90;;;;;;5019408;28;20441;-61
2022/10/12 12:32:45;;;;;;;14.07;7.63;;;14.30;99.90;;;;;;5019977;28;20437;-61
2022/10/12 12:35:22;;;;;;;11.93;7.40;;;14.40;99.90;;;;;;5022947;28;20477;-62
2022/10/12 12:37:58;;;;;;;15.17;7.47;;;14.40;99.90;;;;;;5022476;28;20457;-61
2022/10/12 12:40:24;;;;;;;19.83;7.63;;;14.50;99.90;;;;;;5025876;28;20441;-61
2022/10/12 12:42:49;;;;;;;16.57;9.20;;;14.50;99.90;;;;;;5016244;28;20451;-60